• Join FlightAware (Why Join?)
  • Login
  • US Flag 
07:36PM EDT


 

Airport Tracker/Info


-or-


 

Live Flight TrackerFlight Track Log ✈ SWA1319 ✈ 24-Apr-2013 ✈ KDAL - KMCI

Flight Track Log - Related Links

Times and Time Zones

All times are in EDT time to prevent confusion due to time zone crossing. See the SWA1319 flight status page for this flight to view local times or setup timezone preferences in your user account.

Time Position Orientation Groundspeed Altitude Reporting Facility
EDT Latitude Longitude Course Direction KTS MPH feet Rate Location/Type
04:26PM 32.8667 -96.8833 14° North 168 193 2,100  Level Dallas / Fort Worth TRACON
04:27PM 32.9167 -96.9333 320° Northwest 238 274 4,700 2,700 Climbing Dallas / Fort Worth TRACON
04:28PM 32.9667 -97.0000 312° West 270 311 7,900 3,060 Climbing Dallas / Fort Worth TRACON
04:30PM 33.0897 -97.1133 322° Northwest 283 326 14,200 2,820 Climbing Fort Worth Center
04:31PM 33.1711 -97.1281 351° North 278 320 16,700 2,220 Climbing Fort Worth Center
04:32PM 33.3998 -96.6667 14° North  Level FlightAware Approximate
04:32PM 33.2631 -97.1178 North 306 352 18,700  Level Fort Worth Center
04:33PM 33.3592 -97.1150 North 340 391 20,000 600 Climbing Fort Worth Center
04:34PM 33.4572 -97.1097 North 346 398 20,000 300 Level Fort Worth Center
04:35PM 33.5697 -97.0944 North 389 448 20,700 1,200 Climbing Fort Worth Center
04:36PM 33.6803 -97.0814 North 389 448 22,400 1,380 Climbing Fort Worth Center
04:37PM 33.7908 -97.0661 North 397 457 23,500 1,500 Climbing Fort Worth Center
04:38PM 33.9017 -97.0531 North 418 481 25,500 1,560 Climbing Fort Worth Center
04:39PM 34.0350 -97.0350 North 428 493 26,700 1,020 Climbing Fort Worth Center
04:40PM 34.1436 -97.0244 North 433 498 27,600 1,020 Climbing Fort Worth Center
04:41PM 34.2708 -97.0089 North 439 505 28,800 1,320 Climbing Fort Worth Center
04:42PM 34.3981 -96.9806 10° North 451 519 30,300 1,080 Climbing Fort Worth Center
04:43PM 34.5231 -96.9294 19° North 456 525 31,000 960 Climbing Fort Worth Center
04:44PM 34.6478 -96.8758 19° North 465 535 32,300 1,140 Climbing Fort Worth Center
04:45PM 34.7728 -96.8269 18° North 465 535 33,300 960 Climbing Fort Worth Center
04:46PM 34.8936 -96.7756 19° North 465 535 34,300 600 Climbing Fort Worth Center
04:48PM 35.1044 -96.6839 20° North 456 525 35,000 240 Climbing Kansas City Center
04:49PM 35.2456 -96.6244 19° North 453 521 35,000  Level Kansas City Center
04:50PM 35.3647 -96.5747 19° North 453 521 35,000  Level Kansas City Center
04:51PM 35.4839 -96.5247 19° North 455 524 35,000  Level Kansas City Center
04:52PM 35.6025 -96.4739 19° North 455 524 35,000  Level Kansas City Center
04:53PM 35.7222 -96.4219 19° North 456 525 35,000  Level Kansas City Center
04:54PM 35.8594 -96.3650 19° North 458 527 35,000  Level Kansas City Center
04:55PM 35.8387 -96.3720 19° North  Level FlightAware Approximate
04:55PM 35.9819 -96.3136 19° North 461 531 35,000  Level Kansas City Center
04:57PM 36.1053 -96.2606 19° North 463 533 35,000  Level Kansas City Center
04:58PM 36.2275 -96.2094 19° North 462 532 35,000  Level Kansas City Center
04:59PM 36.3497 -96.1558 19° North 462 532 35,000  Level Kansas City Center
05:00PM 36.4969 -96.0919 19° North 462 532 35,000 -240 Level Kansas City Center
05:01PM 36.6189 -96.0386 19° North 460 529 34,600 -660 Descending Kansas City Center
05:02PM 36.7447 -95.9842 19° North 467 537 33,700 -780 Descending Kansas City Center
05:03PM 36.8722 -95.9289 19° North 478 550 33,000 -360 Descending Kansas City Center
05:04PM 36.9972 -95.8739 19° North 475 547 33,000  Level Kansas City Center
05:05PM 37.1219 -95.8183 20° North 473 544 33,000  Level Kansas City Center
05:06PM 37.2503 -95.7614 19° North 480 552 33,000  Level Kansas City Center
05:07PM 37.3769 -95.7053 19° North 481 554 33,000  Level Kansas City Center
05:08PM 37.5278 -95.6347 20° North 479 551 33,000  Level Kansas City Center
05:09PM 37.6539 -95.5833 18° North 475 547 33,000  Level Kansas City Center
05:10PM 37.7769 -95.5689 North 448 516 33,000 -720 Level Kansas City Center
05:11PM 37.8967 -95.5514 North 436 502 31,600 -1,500 Descending Kansas City Center
05:12PM 38.0158 -95.5406 North 442 509 30,000 -2,400 Descending Kansas City Center
05:13PM 38.1550 -95.5178 North 449 517 26,600 -2,880 Descending Kansas City Center
05:14PM 38.2675 -95.5022 North 427 491 24,100 -2,640 Descending Kansas City Center
05:15PM 38.3942 -95.4825 North 411 473 21,300 -2,340 Descending Kansas City Center
05:16PM 38.4975 -95.4681 North 392 451 19,200 -2,040 Descending Kansas City Center
05:17PM 38.6122 -95.4500 North 373 429 17,100 -2,160 Descending Kansas City Center
05:18PM 38.7053 -95.4347 North 354 407 14,800 -2,460 Descending Kansas City Center
05:19PM 38.8097 -95.4078 11° North 351 404 12,100 -1,320 Descending Kansas City Center
05:20PM 38.8775 -95.3208 45° Northeast 367 422 12,100 -60 Level Kansas City Center
05:21PM 38.9544 -95.2114 48° Northeast 372 428 12,000 -60 Descending Kansas City Center
05:22PM 39.0183 -95.1203 48° Northeast 363 418 12,000 -300 Level Kansas City Center
05:23PM 39.0922 -95.0147 48° Northeast 359 413 11,400 -540 Descending Kansas City Center
05:24PM 39.1544 -94.9250 48° Northeast 354 407 11,000 -540 Descending Kansas City Center
05:25PM 39.1917 -94.8061 68° East 332 382 10,400 -900 Descending Kansas City Center
05:27PM 39.1986 -94.7008 85° East 309 356 9,200 -1,680 Descending Kansas City Center
05:28PM 39.2050 -94.5853 86° East 290 334 7,000 -1,920 Descending Kansas City Center
05:29PM 39.2375 -94.5081 61° Northeast 276 318 5,300 -1,380 Descending Kansas City Center
05:30PM 39.2839 -94.5592 320° Northwest 215 247 4,200 -1,080 Descending Kansas City Center
05:31PM 39.2814 -94.6094 266° West 155 178 3,200 -1,260 Descending Kansas City Center
05:32PM 39.2853 -94.6608 276° West 130 150 1,600 -1,020 Descending Kansas City Center
05:33PM 39.2892 -94.7103 276° West 129 148 1,100 -540 Descending Kansas City Center